sensor_id;sensor_type;location;lat;lon;timestamp;P1;durP1;ratioP1;P2;durP2;ratioP2
39738;SDS011;25422;48.286;8.484;2023-06-22T00:01:01;16.98;;;11.85;;
39738;SDS011;25422;48.286;8.484;2023-06-22T00:03:26;16.92;;;12.80;;
39738;SDS011;25422;48.286;8.484;2023-06-22T00:05:52;14.98;;;11.32;;
39738;SDS011;25422;48.286;8.484;2023-06-22T00:08:18;14.20;;;11.45;;
39738;SDS011;25422;48.286;8.484;2023-06-22T00:10:44;19.55;;;12.43;;
39738;SDS011;25422;48.286;8.484;2023-06-22T00:13:11;19.35;;;11.25;;
39738;SDS011;25422;48.286;8.484;2023-06-22T00:15:37;13.18;;;11.70;;
39738;SDS011;25422;48.286;8.484;2023-06-22T00:18:05;16.08;;;11.50;;
39738;SDS011;25422;48.286;8.484;2023-06-22T00:20:31;17.30;;;12.05;;
39738;SDS011;25422;48.286;8.484;2023-06-22T00:22:58;13.38;;;11.73;;
39738;SDS011;25422;48.286;8.484;2023-06-22T00:25:24;14.30;;;10.73;;
39738;SDS011;25422;48.286;8.484;2023-06-22T00:27:50;16.27;;;11.48;;
39738;SDS011;25422;48.286;8.484;2023-06-22T00:30:16;16.88;;;12.45;;
39738;SDS011;25422;48.286;8.484;2023-06-22T00:32:42;15.38;;;11.68;;
39738;SDS011;25422;48.286;8.484;2023-06-22T00:35:08;14.30;;;11.27;;
39738;SDS011;25422;48.286;8.484;2023-06-22T00:37:35;15.50;;;11.98;;
39738;SDS011;25422;48.286;8.484;2023-06-22T00:40:01;18.88;;;12.77;;
39738;SDS011;25422;48.286;8.484;2023-06-22T00:42:27;17.90;;;13.25;;
39738;SDS011;25422;48.286;8.484;2023-06-22T00:44:52;16.98;;;13.32;;
39738;SDS011;25422;48.286;8.484;2023-06-22T00:47:18;18.23;;;13.07;;
39738;SDS011;25422;48.286;8.484;2023-06-22T00:49:44;18.35;;;13.32;;
39738;SDS011;25422;48.286;8.484;2023-06-22T00:52:10;20.38;;;13.50;;
39738;SDS011;25422;48.286;8.484;2023-06-22T00:54:40;18.67;;;13.25;;
39738;SDS011;25422;48.286;8.484;2023-06-22T00:57:08;18.25;;;12.82;;
39738;SDS011;25422;48.286;8.484;2023-06-22T00:59:36;15.73;;;12.73;;
39738;SDS011;25422;48.286;8.484;2023-06-22T01:02:02;17.35;;;13.48;;
39738;SDS011;25422;48.286;8.484;2023-06-22T01:04:34;18.00;;;12.77;;
39738;SDS011;25422;48.286;8.484;2023-06-22T01:07:10;18.48;;;12.63;;
39738;SDS011;25422;48.286;8.484;2023-06-22T01:12:34;18.35;;;13.75;;
39738;SDS011;25422;48.286;8.484;2023-06-22T01:15:08;18.38;;;12.80;;
39738;SDS011;25422;48.286;8.484;2023-06-22T01:17:46;14.25;;;11.48;;
39738;SDS011;25422;48.286;8.484;2023-06-22T01:20:14;18.77;;;12.73;;
39738;SDS011;25422;48.286;8.484;2023-06-22T01:22:53;15.88;;;12.02;;
39738;SDS011;25422;48.286;8.484;2023-06-22T01:25:36;14.80;;;12.15;;
39738;SDS011;25422;48.286;8.484;2023-06-22T01:31:12;19.35;;;12.35;;
39738;SDS011;25422;48.286;8.484;2023-06-22T01:33:41;19.63;;;12.10;;
39738;SDS011;25422;48.286;8.484;2023-06-22T01:36:07;14.75;;;11.82;;
39738;SDS011;25422;48.286;8.484;2023-06-22T01:38:34;18.15;;;12.30;;
39738;SDS011;25422;48.286;8.484;2023-06-22T01:41:02;19.63;;;12.18;;
39738;SDS011;25422;48.286;8.484;2023-06-22T01:43:28;15.65;;;11.48;;
39738;SDS011;25422;48.286;8.484;2023-06-22T01:45:55;15.95;;;12.18;;
39738;SDS011;25422;48.286;8.484;2023-06-22T01:48:22;14.40;;;12.00;;
39738;SDS011;25422;48.286;8.484;2023-06-22T01:50:48;20.98;;;13.50;;
39738;SDS011;25422;48.286;8.484;2023-06-22T01:53:14;22.65;;;14.50;;
39738;SDS011;25422;48.286;8.484;2023-06-22T01:55:39;17.88;;;12.95;;
39738;SDS011;25422;48.286;8.484;2023-06-22T01:58:04;18.27;;;13.65;;
39738;SDS011;25422;48.286;8.484;2023-06-22T02:00:34;17.20;;;14.13;;
39738;SDS011;25422;48.286;8.484;2023-06-22T02:03:05;19.13;;;15.00;;
39738;SDS011;25422;48.286;8.484;2023-06-22T02:05:38;20.20;;;15.23;;
39738;SDS011;25422;48.286;8.484;2023-06-22T02:08:21;21.38;;;14.50;;
39738;SDS011;25422;48.286;8.484;2023-06-22T02:10:49;18.52;;;13.43;;
39738;SDS011;25422;48.286;8.484;2023-06-22T02:13:16;19.98;;;14.82;;
39738;SDS011;25422;48.286;8.484;2023-06-22T02:15:42;20.25;;;15.30;;
39738;SDS011;25422;48.286;8.484;2023-06-22T02:18:11;23.33;;;14.82;;
39738;SDS011;25422;48.286;8.484;2023-06-22T02:20:38;18.65;;;13.85;;
39738;SDS011;25422;48.286;8.484;2023-06-22T02:23:05;21.45;;;15.02;;
39738;SDS011;25422;48.286;8.484;2023-06-22T02:25:34;19.45;;;14.82;;
39738;SDS011;25422;48.286;8.484;2023-06-22T02:28:00;24.23;;;15.90;;
39738;SDS011;25422;48.286;8.484;2023-06-22T02:30:26;22.92;;;15.65;;
39738;SDS011;25422;48.286;8.484;2023-06-22T02:32:51;19.95;;;15.27;;
39738;SDS011;25422;48.286;8.484;2023-06-22T02:35:24;17.63;;;14.55;;
39738;SDS011;25422;48.286;8.484;2023-06-22T02:37:56;23.35;;;16.25;;
39738;SDS011;25422;48.286;8.484;2023-06-22T02:40:25;22.77;;;16.25;;
39738;SDS011;25422;48.286;8.484;2023-06-22T02:42:50;24.48;;;15.35;;
39738;SDS011;25422;48.286;8.484;2023-06-22T02:45:16;24.02;;;15.68;;
39738;SDS011;25422;48.286;8.484;2023-06-22T02:47:42;20.20;;;15.13;;
39738;SDS011;25422;48.286;8.484;2023-06-22T02:50:08;18.08;;;14.98;;
39738;SDS011;25422;48.286;8.484;2023-06-22T02:52:34;26.15;;;16.00;;
39738;SDS011;25422;48.286;8.484;2023-06-22T02:54:59;22.63;;;15.90;;
39738;SDS011;25422;48.286;8.484;2023-06-22T02:57:25;24.17;;;16.63;;
39738;SDS011;25422;48.286;8.484;2023-06-22T02:59:51;23.98;;;16.73;;
39738;SDS011;25422;48.286;8.484;2023-06-22T03:02:16;19.73;;;15.52;;
39738;SDS011;25422;48.286;8.484;2023-06-22T03:04:42;17.42;;;14.85;;
39738;SDS011;25422;48.286;8.484;2023-06-22T03:07:08;24.42;;;16.13;;
39738;SDS011;25422;48.286;8.484;2023-06-22T03:09:33;26.58;;;16.25;;
39738;SDS011;25422;48.286;8.484;2023-06-22T03:11:59;23.77;;;15.50;;
39738;SDS011;25422;48.286;8.484;2023-06-22T03:14:31;21.00;;;15.88;;
39738;SDS011;25422;48.286;8.484;2023-06-22T03:16:57;25.60;;;16.33;;
39738;SDS011;25422;48.286;8.484;2023-06-22T03:19:31;25.60;;;17.25;;
39738;SDS011;25422;48.286;8.484;2023-06-22T03:21:59;23.60;;;15.88;;
39738;SDS011;25422;48.286;8.484;2023-06-22T03:24:25;20.02;;;15.73;;
39738;SDS011;25422;48.286;8.484;2023-06-22T03:26:53;21.15;;;14.65;;
39738;SDS011;25422;48.286;8.484;2023-06-22T03:29:19;20.23;;;15.82;;
39738;SDS011;25422;48.286;8.484;2023-06-22T03:31:48;24.30;;;15.90;;
39738;SDS011;25422;48.286;8.484;2023-06-22T03:34:14;22.80;;;15.63;;
39738;SDS011;25422;48.286;8.484;2023-06-22T03:36:40;21.75;;;15.73;;
39738;SDS011;25422;48.286;8.484;2023-06-22T03:39:05;21.13;;;14.70;;
39738;SDS011;25422;48.286;8.484;2023-06-22T03:41:30;25.65;;;15.57;;
39738;SDS011;25422;48.286;8.484;2023-06-22T03:43:56;19.55;;;14.77;;
39738;SDS011;25422;48.286;8.484;2023-06-22T03:46:21;24.05;;;16.30;;
39738;SDS011;25422;48.286;8.484;2023-06-22T03:48:47;25.95;;;15.70;;
39738;SDS011;25422;48.286;8.484;2023-06-22T03:51:12;24.23;;;16.27;;
39738;SDS011;25422;48.286;8.484;2023-06-22T03:53:37;25.42;;;16.77;;
39738;SDS011;25422;48.286;8.484;2023-06-22T03:56:03;21.92;;;16.85;;
39738;SDS011;25422;48.286;8.484;2023-06-22T03:58:28;22.15;;;16.58;;
39738;SDS011;25422;48.286;8.484;2023-06-22T04:00:57;19.45;;;15.23;;
39738;SDS011;25422;48.286;8.484;2023-06-22T04:03:23;21.88;;;16.13;;
39738;SDS011;25422;48.286;8.484;2023-06-22T04:05:48;30.80;;;18.13;;
39738;SDS011;25422;48.286;8.484;2023-06-22T04:08:14;20.92;;;15.65;;
39738;SDS011;25422;48.286;8.484;2023-06-22T04:10:39;28.17;;;16.73;;
39738;SDS011;25422;48.286;8.484;2023-06-22T04:13:05;28.63;;;17.10;;
39738;SDS011;25422;48.286;8.484;2023-06-22T04:15:31;19.73;;;16.00;;
39738;SDS011;25422;48.286;8.484;2023-06-22T04:17:56;24.58;;;16.00;;
39738;SDS011;25422;48.286;8.484;2023-06-22T04:20:22;25.83;;;16.33;;
39738;SDS011;25422;48.286;8.484;2023-06-22T04:22:50;20.13;;;15.80;;
39738;SDS011;25422;48.286;8.484;2023-06-22T04:25:16;21.58;;;16.17;;
39738;SDS011;25422;48.286;8.484;2023-06-22T04:27:42;26.20;;;15.77;;
39738;SDS011;25422;48.286;8.484;2023-06-22T04:30:07;23.75;;;15.52;;
39738;SDS011;25422;48.286;8.484;2023-06-22T04:32:33;22.17;;;15.95;;
39738;SDS011;25422;48.286;8.484;2023-06-22T04:35:01;20.55;;;15.10;;
39738;SDS011;25422;48.286;8.484;2023-06-22T04:37:29;24.53;;;14.63;;
39738;SDS011;25422;48.286;8.484;2023-06-22T04:39:55;17.95;;;14.23;;
39738;SDS011;25422;48.286;8.484;2023-06-22T04:42:20;16.67;;;13.77;;
39738;SDS011;25422;48.286;8.484;2023-06-22T04:44:46;21.25;;;14.02;;
39738;SDS011;25422;48.286;8.484;2023-06-22T04:47:11;16.50;;;13.23;;
39738;SDS011;25422;48.286;8.484;2023-06-22T04:49:37;17.50;;;13.63;;
39738;SDS011;25422;48.286;8.484;2023-06-22T04:52:03;18.55;;;12.82;;
39738;SDS011;25422;48.286;8.484;2023-06-22T04:54:30;18.80;;;12.73;;
39738;SDS011;25422;48.286;8.484;2023-06-22T04:56:58;19.17;;;12.10;;
39738;SDS011;25422;48.286;8.484;2023-06-22T04:59:25;17.73;;;12.10;;
39738;SDS011;25422;48.286;8.484;2023-06-22T05:01:56;16.10;;;12.00;;
39738;SDS011;25422;48.286;8.484;2023-06-22T05:04:22;18.20;;;12.68;;
39738;SDS011;25422;48.286;8.484;2023-06-22T05:09:17;17.92;;;12.30;;
39738;SDS011;25422;48.286;8.484;2023-06-22T05:11:43;18.63;;;12.05;;
39738;SDS011;25422;48.286;8.484;2023-06-22T05:14:09;16.17;;;12.43;;
39738;SDS011;25422;48.286;8.484;2023-06-22T05:16:35;17.55;;;12.23;;
39738;SDS011;25422;48.286;8.484;2023-06-22T05:19:01;17.67;;;12.20;;
39738;SDS011;25422;48.286;8.484;2023-06-22T05:21:28;15.43;;;11.82;;
39738;SDS011;25422;48.286;8.484;2023-06-22T05:23:55;18.85;;;12.25;;
39738;SDS011;25422;48.286;8.484;2023-06-22T05:26:25;17.70;;;12.50;;
39738;SDS011;25422;48.286;8.484;2023-06-22T05:28:51;15.55;;;11.88;;
39738;SDS011;25422;48.286;8.484;2023-06-22T05:31:17;20.30;;;11.75;;
39738;SDS011;25422;48.286;8.484;2023-06-22T05:33:45;18.73;;;11.50;;
39738;SDS011;25422;48.286;8.484;2023-06-22T05:36:11;14.93;;;10.43;;
39738;SDS011;25422;48.286;8.484;2023-06-22T05:38:37;13.90;;;9.95;;
39738;SDS011;25422;48.286;8.484;2023-06-22T05:41:04;11.68;;;9.98;;
39738;SDS011;25422;48.286;8.484;2023-06-22T05:43:32;14.88;;;10.43;;
39738;SDS011;25422;48.286;8.484;2023-06-22T05:45:59;12.05;;;9.27;;
39738;SDS011;25422;48.286;8.484;2023-06-22T05:48:25;14.25;;;9.57;;
39738;SDS011;25422;48.286;8.484;2023-06-22T05:50:50;11.90;;;9.30;;
39738;SDS011;25422;48.286;8.484;2023-06-22T05:53:15;14.23;;;8.70;;
39738;SDS011;25422;48.286;8.484;2023-06-22T05:55:41;17.17;;;8.43;;
39738;SDS011;25422;48.286;8.484;2023-06-22T05:58:07;13.85;;;8.93;;
39738;SDS011;25422;48.286;8.484;2023-06-22T06:00:33;12.73;;;8.30;;
39738;SDS011;25422;48.286;8.484;2023-06-22T06:02:59;14.77;;;8.77;;
39738;SDS011;25422;48.286;8.484;2023-06-22T06:05:29;14.13;;;7.65;;
39738;SDS011;25422;48.286;8.484;2023-06-22T06:07:55;10.65;;;7.63;;
39738;SDS011;25422;48.286;8.484;2023-06-22T06:10:20;9.93;;;7.90;;
39738;SDS011;25422;48.286;8.484;2023-06-22T06:12:45;11.18;;;7.38;;
39738;SDS011;25422;48.286;8.484;2023-06-22T06:15:11;11.90;;;8.00;;
39738;SDS011;25422;48.286;8.484;2023-06-22T06:17:44;11.98;;;7.68;;
39738;SDS011;25422;48.286;8.484;2023-06-22T06:20:10;12.30;;;7.72;;
39738;SDS011;25422;48.286;8.484;2023-06-22T06:22:37;11.23;;;7.80;;
39738;SDS011;25422;48.286;8.484;2023-06-22T06:25:02;12.85;;;7.68;;
39738;SDS011;25422;48.286;8.484;2023-06-22T06:27:28;15.10;;;7.35;;
39738;SDS011;25422;48.286;8.484;2023-06-22T06:29:54;10.23;;;6.88;;
39738;SDS011;25422;48.286;8.484;2023-06-22T06:32:19;9.27;;;6.43;;
39738;SDS011;25422;48.286;8.484;2023-06-22T06:34:45;11.25;;;6.75;;
39738;SDS011;25422;48.286;8.484;2023-06-22T06:37:10;11.13;;;6.65;;
39738;SDS011;25422;48.286;8.484;2023-06-22T06:39:36;8.85;;;6.78;;
39738;SDS011;25422;48.286;8.484;2023-06-22T06:42:02;11.82;;;7.35;;
39738;SDS011;25422;48.286;8.484;2023-06-22T06:44:28;11.35;;;6.97;;
39738;SDS011;25422;48.286;8.484;2023-06-22T06:46:53;9.55;;;6.78;;
39738;SDS011;25422;48.286;8.484;2023-06-22T06:49:19;8.35;;;6.20;;
39738;SDS011;25422;48.286;8.484;2023-06-22T06:51:44;11.23;;;5.68;;
39738;SDS011;25422;48.286;8.484;2023-06-22T06:54:10;13.07;;;6.38;;
39738;SDS011;25422;48.286;8.484;2023-06-22T06:56:35;11.20;;;6.03;;
39738;SDS011;25422;48.286;8.484;2023-06-22T06:59:01;12.35;;;6.25;;
39738;SDS011;25422;48.286;8.484;2023-06-22T07:01:26;11.88;;;5.88;;
39738;SDS011;25422;48.286;8.484;2023-06-22T07:03:52;10.90;;;5.30;;
39738;SDS011;25422;48.286;8.484;2023-06-22T07:06:18;8.38;;;5.57;;
39738;SDS011;25422;48.286;8.484;2023-06-22T07:08:44;11.23;;;6.25;;
39738;SDS011;25422;48.286;8.484;2023-06-22T07:11:09;9.10;;;5.70;;
39738;SDS011;25422;48.286;8.484;2023-06-22T07:13:34;10.73;;;5.80;;
39738;SDS011;25422;48.286;8.484;2023-06-22T07:16:00;12.10;;;6.45;;
39738;SDS011;25422;48.286;8.484;2023-06-22T07:18:25;13.32;;;6.50;;
39738;SDS011;25422;48.286;8.484;2023-06-22T07:20:51;13.88;;;6.63;;
39738;SDS011;25422;48.286;8.484;2023-06-22T07:23:17;11.52;;;6.72;;
39738;SDS011;25422;48.286;8.484;2023-06-22T07:25:42;12.73;;;6.47;;
39738;SDS011;25422;48.286;8.484;2023-06-22T07:28:08;12.52;;;6.00;;
39738;SDS011;25422;48.286;8.484;2023-06-22T07:30:33;8.65;;;6.57;;
39738;SDS011;25422;48.286;8.484;2023-06-22T07:32:59;10.82;;;6.38;;
39738;SDS011;25422;48.286;8.484;2023-06-22T07:35:32;14.07;;;6.38;;
39738;SDS011;25422;48.286;8.484;2023-06-22T07:37:57;12.82;;;6.43;;
39738;SDS011;25422;48.286;8.484;2023-06-22T07:40:23;12.57;;;6.57;;
39738;SDS011;25422;48.286;8.484;2023-06-22T07:42:48;11.32;;;7.07;;
39738;SDS011;25422;48.286;8.484;2023-06-22T07:45:16;15.53;;;7.03;;
39738;SDS011;25422;48.286;8.484;2023-06-22T07:47:42;12.70;;;7.05;;
39738;SDS011;25422;48.286;8.484;2023-06-22T07:50:08;13.15;;;6.70;;
39738;SDS011;25422;48.286;8.484;2023-06-22T07:52:34;12.55;;;6.70;;
39738;SDS011;25422;48.286;8.484;2023-06-22T07:55:00;11.93;;;6.57;;
39738;SDS011;25422;48.286;8.484;2023-06-22T07:57:26;10.43;;;6.13;;
39738;SDS011;25422;48.286;8.484;2023-06-22T07:59:57;13.02;;;6.57;;
39738;SDS011;25422;48.286;8.484;2023-06-22T08:02:24;14.75;;;6.53;;
39738;SDS011;25422;48.286;8.484;2023-06-22T08:04:49;12.05;;;6.40;;
39738;SDS011;25422;48.286;8.484;2023-06-22T08:07:14;11.07;;;6.47;;
39738;SDS011;25422;48.286;8.484;2023-06-22T08:09:45;8.65;;;5.90;;
39738;SDS011;25422;48.286;8.484;2023-06-22T08:12:12;13.30;;;6.43;;
39738;SDS011;25422;48.286;8.484;2023-06-22T08:14:38;13.20;;;6.25;;
39738;SDS011;25422;48.286;8.484;2023-06-22T08:17:04;14.05;;;6.63;;
39738;SDS011;25422;48.286;8.484;2023-06-22T08:19:29;13.27;;;6.22;;
39738;SDS011;25422;48.286;8.484;2023-06-22T08:21:55;12.65;;;6.40;;
39738;SDS011;25422;48.286;8.484;2023-06-22T08:24:20;10.80;;;5.70;;
39738;SDS011;25422;48.286;8.484;2023-06-22T08:26:45;12.20;;;5.93;;
39738;SDS011;25422;48.286;8.484;2023-06-22T08:29:11;11.55;;;5.70;;
39738;SDS011;25422;48.286;8.484;2023-06-22T08:31:36;9.10;;;5.95;;
39738;SDS011;25422;48.286;8.484;2023-06-22T08:34:02;12.32;;;5.40;;
39738;SDS011;25422;48.286;8.484;2023-06-22T08:36:27;12.25;;;5.47;;
39738;SDS011;25422;48.286;8.484;2023-06-22T08:39:03;7.82;;;4.78;;
39738;SDS011;25422;48.286;8.484;2023-06-22T08:41:29;12.65;;;5.20;;
39738;SDS011;25422;48.286;8.484;2023-06-22T08:43:54;12.95;;;5.65;;
39738;SDS011;25422;48.286;8.484;2023-06-22T08:46:20;12.68;;;5.70;;
39738;SDS011;25422;48.286;8.484;2023-06-22T08:48:48;14.45;;;5.93;;
39738;SDS011;25422;48.286;8.484;2023-06-22T08:51:15;13.82;;;5.40;;
39738;SDS011;25422;48.286;8.484;2023-06-22T08:53:41;12.15;;;5.32;;
39738;SDS011;25422;48.286;8.484;2023-06-22T08:56:06;8.75;;;5.60;;
39738;SDS011;25422;48.286;8.484;2023-06-22T08:58:31;12.73;;;5.47;;
39738;SDS011;25422;48.286;8.484;2023-06-22T09:00:57;13.98;;;5.82;;
39738;SDS011;25422;48.286;8.484;2023-06-22T09:03:26;12.38;;;5.75;;
39738;SDS011;25422;48.286;8.484;2023-06-22T09:05:52;9.73;;;5.97;;
39738;SDS011;25422;48.286;8.484;2023-06-22T09:08:17;9.48;;;5.60;;
39738;SDS011;25422;48.286;8.484;2023-06-22T09:10:43;13.98;;;6.18;;
39738;SDS011;25422;48.286;8.484;2023-06-22T09:13:08;8.98;;;5.28;;
39738;SDS011;25422;48.286;8.484;2023-06-22T09:15:33;9.93;;;6.40;;
39738;SDS011;25422;48.286;8.484;2023-06-22T09:17:59;13.57;;;7.75;;
39738;SDS011;25422;48.286;8.484;2023-06-22T09:20:25;13.48;;;7.20;;
39738;SDS011;25422;48.286;8.484;2023-06-22T09:22:50;11.13;;;7.10;;
39738;SDS011;25422;48.286;8.484;2023-06-22T09:25:16;10.80;;;7.20;;
39738;SDS011;25422;48.286;8.484;2023-06-22T09:27:41;12.18;;;7.00;;
39738;SDS011;25422;48.286;8.484;2023-06-22T09:30:09;13.18;;;6.70;;
39738;SDS011;25422;48.286;8.484;2023-06-22T09:32:34;11.13;;;6.15;;
39738;SDS011;25422;48.286;8.484;2023-06-22T09:35:03;13.32;;;7.05;;
39738;SDS011;25422;48.286;8.484;2023-06-22T09:37:36;19.98;;;6.88;;
39738;SDS011;25422;48.286;8.484;2023-06-22T09:40:02;13.23;;;6.72;;
39738;SDS011;25422;48.286;8.484;2023-06-22T09:42:33;11.23;;;6.03;;
39738;SDS011;25422;48.286;8.484;2023-06-22T09:44:59;12.65;;;5.70;;
39738;SDS011;25422;48.286;8.484;2023-06-22T09:47:26;13.00;;;5.72;;
39738;SDS011;25422;48.286;8.484;2023-06-22T09:49:52;9.18;;;5.63;;
39738;SDS011;25422;48.286;8.484;2023-06-22T09:52:20;14.10;;;5.93;;
39738;SDS011;25422;48.286;8.484;2023-06-22T09:54:46;14.00;;;5.90;;
39738;SDS011;25422;48.286;8.484;2023-06-22T09:57:11;14.18;;;5.90;;
39738;SDS011;25422;48.286;8.484;2023-06-22T09:59:37;10.25;;;5.28;;
39738;SDS011;25422;48.286;8.484;2023-06-22T10:02:03;12.18;;;5.68;;
39738;SDS011;25422;48.286;8.484;2023-06-22T10:04:28;12.93;;;5.38;;
39738;SDS011;25422;48.286;8.484;2023-06-22T10:06:53;13.25;;;5.60;;
39738;SDS011;25422;48.286;8.484;2023-06-22T10:09:19;13.23;;;5.30;;
39738;SDS011;25422;48.286;8.484;2023-06-22T10:11:44;12.10;;;5.63;;
39738;SDS011;25422;48.286;8.484;2023-06-22T10:14:10;14.90;;;6.60;;
39738;SDS011;25422;48.286;8.484;2023-06-22T10:16:36;13.50;;;6.00;;
39738;SDS011;25422;48.286;8.484;2023-06-22T10:19:01;12.85;;;5.82;;
39738;SDS011;25422;48.286;8.484;2023-06-22T10:21:26;12.50;;;6.18;;
39738;SDS011;25422;48.286;8.484;2023-06-22T10:23:53;15.73;;;5.78;;
39738;SDS011;25422;48.286;8.484;2023-06-22T10:26:19;14.77;;;5.80;;
39738;SDS011;25422;48.286;8.484;2023-06-22T10:28:44;12.15;;;5.55;;
39738;SDS011;25422;48.286;8.484;2023-06-22T10:31:10;17.45;;;7.00;;
39738;SDS011;25422;48.286;8.484;2023-06-22T10:33:35;14.13;;;6.03;;
39738;SDS011;25422;48.286;8.484;2023-06-22T10:36:01;11.73;;;6.20;;
39738;SDS011;25422;48.286;8.484;2023-06-22T10:38:26;17.88;;;7.00;;
39738;SDS011;25422;48.286;8.484;2023-06-22T10:40:51;19.77;;;6.70;;
39738;SDS011;25422;48.286;8.484;2023-06-22T10:43:17;15.95;;;6.00;;
39738;SDS011;25422;48.286;8.484;2023-06-22T10:45:42;13.95;;;5.78;;
39738;SDS011;25422;48.286;8.484;2023-06-22T10:48:07;11.38;;;6.05;;
39738;SDS011;25422;48.286;8.484;2023-06-22T10:50:33;13.27;;;6.97;;
39738;SDS011;25422;48.286;8.484;2023-06-22T10:52:58;20.33;;;7.00;;
39738;SDS011;25422;48.286;8.484;2023-06-22T10:55:24;15.73;;;6.40;;
39738;SDS011;25422;48.286;8.484;2023-06-22T10:57:49;16.95;;;6.15;;
39738;SDS011;25422;48.286;8.484;2023-06-22T11:00:15;14.05;;;5.95;;
39738;SDS011;25422;48.286;8.484;2023-06-22T11:02:40;14.73;;;6.50;;
39738;SDS011;25422;48.286;8.484;2023-06-22T11:05:06;16.17;;;6.80;;
39738;SDS011;25422;48.286;8.484;2023-06-22T11:07:32;15.07;;;6.47;;
39738;SDS011;25422;48.286;8.484;2023-06-22T11:09:57;14.38;;;7.05;;
39738;SDS011;25422;48.286;8.484;2023-06-22T11:12:23;10.30;;;6.15;;
39738;SDS011;25422;48.286;8.484;2023-06-22T11:14:49;13.30;;;6.30;;
39738;SDS011;25422;48.286;8.484;2023-06-22T11:17:17;15.30;;;6.82;;
39738;SDS011;25422;48.286;8.484;2023-06-22T11:19:43;17.42;;;6.40;;
39738;SDS011;25422;48.286;8.484;2023-06-22T11:22:09;16.00;;;6.57;;
39738;SDS011;25422;48.286;8.484;2023-06-22T11:24:35;14.68;;;6.97;;
39738;SDS011;25422;48.286;8.484;2023-06-22T11:27:00;16.80;;;6.28;;
39738;SDS011;25422;48.286;8.484;2023-06-22T11:29:26;12.23;;;5.82;;
39738;SDS011;25422;48.286;8.484;2023-06-22T11:31:51;14.38;;;6.50;;
39738;SDS011;25422;48.286;8.484;2023-06-22T11:34:17;13.35;;;6.00;;
39738;SDS011;25422;48.286;8.484;2023-06-22T11:36:44;14.95;;;6.47;;
39738;SDS011;25422;48.286;8.484;2023-06-22T11:39:10;13.77;;;6.15;;
39738;SDS011;25422;48.286;8.484;2023-06-22T11:41:36;13.50;;;5.88;;
39738;SDS011;25422;48.286;8.484;2023-06-22T11:44:01;14.27;;;6.45;;
39738;SDS011;25422;48.286;8.484;2023-06-22T11:46:26;17.90;;;6.63;;
39738;SDS011;25422;48.286;8.484;2023-06-22T11:48:52;16.83;;;6.10;;
39738;SDS011;25422;48.286;8.484;2023-06-22T11:51:17;14.65;;;6.78;;
39738;SDS011;25422;48.286;8.484;2023-06-22T11:53:43;9.85;;;6.07;;
39738;SDS011;25422;48.286;8.484;2023-06-22T11:56:08;14.57;;;6.32;;
39738;SDS011;25422;48.286;8.484;2023-06-22T11:58:33;14.93;;;6.78;;
39738;SDS011;25422;48.286;8.484;2023-06-22T12:00:59;14.40;;;6.05;;
39738;SDS011;25422;48.286;8.484;2023-06-22T12:03:24;13.05;;;6.82;;
39738;SDS011;25422;48.286;8.484;2023-06-22T12:05:50;16.20;;;6.88;;
39738;SDS011;25422;48.286;8.484;2023-06-22T12:08:17;13.45;;;6.00;;
39738;SDS011;25422;48.286;8.484;2023-06-22T12:10:43;22.90;;;7.38;;
39738;SDS011;25422;48.286;8.484;2023-06-22T12:13:09;16.42;;;7.50;;
39738;SDS011;25422;48.286;8.484;2023-06-22T12:15:34;22.08;;;7.32;;
39738;SDS011;25422;48.286;8.484;2023-06-22T12:17:59;14.27;;;6.70;;
39738;SDS011;25422;48.286;8.484;2023-06-22T12:20:26;16.02;;;6.60;;
39738;SDS011;25422;48.286;8.484;2023-06-22T12:22:51;11.52;;;6.00;;
39738;SDS011;25422;48.286;8.484;2023-06-22T12:25:17;11.15;;;5.93;;
39738;SDS011;25422;48.286;8.484;2023-06-22T12:27:43;13.65;;;6.20;;
39738;SDS011;25422;48.286;8.484;2023-06-22T12:30:08;15.88;;;7.22;;
39738;SDS011;25422;48.286;8.484;2023-06-22T12:32:34;17.50;;;6.55;;
39738;SDS011;25422;48.286;8.484;2023-06-22T12:34:59;15.63;;;6.40;;
39738;SDS011;25422;48.286;8.484;2023-06-22T12:37:25;11.77;;;6.07;;
39738;SDS011;25422;48.286;8.484;2023-06-22T12:39:50;10.95;;;5.78;;
39738;SDS011;25422;48.286;8.484;2023-06-22T12:42:16;21.27;;;6.53;;
39738;SDS011;25422;48.286;8.484;2023-06-22T12:44:41;12.45;;;5.97;;
39738;SDS011;25422;48.286;8.484;2023-06-22T12:47:07;15.73;;;5.80;;
39738;SDS011;25422;48.286;8.484;2023-06-22T12:49:34;12.05;;;5.80;;
39738;SDS011;25422;48.286;8.484;2023-06-22T12:52:00;11.68;;;5.70;;
39738;SDS011;25422;48.286;8.484;2023-06-22T12:54:25;13.82;;;6.35;;
39738;SDS011;25422;48.286;8.484;2023-06-22T12:56:51;15.07;;;5.90;;
39738;SDS011;25422;48.286;8.484;2023-06-22T12:59:16;15.38;;;6.55;;
39738;SDS011;25422;48.286;8.484;2023-06-22T13:01:44;12.37;;;6.13;;
39738;SDS011;25422;48.286;8.484;2023-06-22T13:04:10;12.75;;;5.32;;
39738;SDS011;25422;48.286;8.484;2023-06-22T13:06:42;14.57;;;6.03;;
39738;SDS011;25422;48.286;8.484;2023-06-22T13:09:09;16.33;;;6.22;;
39738;SDS011;25422;48.286;8.484;2023-06-22T13:11:35;14.75;;;6.07;;
39738;SDS011;25422;48.286;8.484;2023-06-22T13:14:00;15.48;;;5.65;;
39738;SDS011;25422;48.286;8.484;2023-06-22T13:16:26;13.73;;;5.43;;
39738;SDS011;25422;48.286;8.484;2023-06-22T13:18:51;12.40;;;5.45;;
39738;SDS011;25422;48.286;8.484;2023-06-22T13:21:16;16.15;;;5.30;;
39738;SDS011;25422;48.286;8.484;2023-06-22T13:23:42;14.60;;;4.85;;
39738;SDS011;25422;48.286;8.484;2023-06-22T13:26:07;16.33;;;4.88;;
39738;SDS011;25422;48.286;8.484;2023-06-22T13:28:33;14.60;;;4.45;;
39738;SDS011;25422;48.286;8.484;2023-06-22T13:30:58;14.90;;;4.60;;
39738;SDS011;25422;48.286;8.484;2023-06-22T13:33:24;10.60;;;5.32;;
39738;SDS011;25422;48.286;8.484;2023-06-22T13:35:49;16.58;;;7.28;;
39738;SDS011;25422;48.286;8.484;2023-06-22T13:38:14;11.63;;;4.63;;
39738;SDS011;25422;48.286;8.484;2023-06-22T13:40:40;14.90;;;4.85;;
39738;SDS011;25422;48.286;8.484;2023-06-22T13:43:05;13.93;;;4.30;;
39738;SDS011;25422;48.286;8.484;2023-06-22T13:45:31;14.23;;;4.30;;
39738;SDS011;25422;48.286;8.484;2023-06-22T13:47:57;16.95;;;4.45;;
39738;SDS011;25422;48.286;8.484;2023-06-22T13:50:22;14.20;;;4.55;;
39738;SDS011;25422;48.286;8.484;2023-06-22T13:52:48;12.80;;;4.57;;
39738;SDS011;25422;48.286;8.484;2023-06-22T13:55:13;15.45;;;4.15;;
39738;SDS011;25422;48.286;8.484;2023-06-22T13:57:40;14.27;;;4.20;;
39738;SDS011;25422;48.286;8.484;2023-06-22T14:00:06;14.23;;;4.60;;
39738;SDS011;25422;48.286;8.484;2023-06-22T14:02:37;15.52;;;4.93;;
39738;SDS011;25422;48.286;8.484;2023-06-22T14:05:02;13.57;;;4.47;;
39738;SDS011;25422;48.286;8.484;2023-06-22T14:07:28;17.38;;;4.55;;
39738;SDS011;25422;48.286;8.484;2023-06-22T14:09:53;14.25;;;4.47;;
39738;SDS011;25422;48.286;8.484;2023-06-22T14:12:19;11.18;;;4.10;;
39738;SDS011;25422;48.286;8.484;2023-06-22T14:14:44;12.02;;;3.97;;
39738;SDS011;25422;48.286;8.484;2023-06-22T14:17:10;11.98;;;4.53;;
39738;SDS011;25422;48.286;8.484;2023-06-22T14:19:35;14.95;;;4.05;;
39738;SDS011;25422;48.286;8.484;2023-06-22T14:22:01;16.25;;;4.43;;
39738;SDS011;25422;48.286;8.484;2023-06-22T14:24:27;13.38;;;4.47;;
39738;SDS011;25422;48.286;8.484;2023-06-22T14:26:52;14.30;;;4.32;;
39738;SDS011;25422;48.286;8.484;2023-06-22T14:29:18;13.00;;;4.35;;
39738;SDS011;25422;48.286;8.484;2023-06-22T14:31:44;14.75;;;4.50;;
39738;SDS011;25422;48.286;8.484;2023-06-22T14:34:11;15.73;;;4.25;;